Newfane, New York
Current Conditions -  °F | °C
As of 4:53 AM on Wednesday 22 Oct 2014 (Local Time) from KIAG Reporting Station
Overcast Overcast  
Wind Chill: 39°   Ceiling: 2100
Heat Index: 45°   Visibility: 10mi
Dew Point: 39°   Wind: 13mph
Humidity: 80%   Direction: 20°NNE
Pressure: 30.15"   Gusts: NA
Location:  43.29°N, 78.71°W
Report Text: KIAG 220853Z AUTO 02011KT 10SM OVC021 07/04 A3015 RMK AO2 SLP217 T00720039 53009
Loading
Personal Weather Stations






























Interactive Weather Map
Tropical Storm Tracking
New forecast layout! Learn more

10-Day Weather Forecast

Advertisements
Track Severe Weather on mobile